Almeria, Nebraska
Current Conditions -  °F | °C
As of 12:53 PM on Friday 28 Nov 2014 (Local Time) from KODX Reporting Station
Clear Clear  
Wind Chill: 69°   Ceiling: Unl
Heat Index: 69°   Visibility: 10mi
Dew Point: 23°   Wind: 14mph
Humidity: 18%   Direction: 280°W
Pressure: 29.66"   Gusts: 23mph
Location:  41.914°N, 99.4547°W
Report Text: KODX 281853Z AUTO 28012G20KT 10SM CLR 21/M05 A2966 RMK AO2 SLP052 T02061050
Loading
Personal Weather Stations






























Interactive Weather Map New forecast layout! Learn more

10-Day Weather Forecast

Advertisements
Track Severe Weather on mobile